NCAR-RAP Real-Time Weather Data

Output produced by METARs form (31 May 2016  09:56 UTC)
found at http://weather.rap.ucar.edu/surface/
 
Conditions at: KALB observed 31 May 2016  09:51 UTC
Temperature: 15.6°C (60°F)
Dewpoint: 12.8°C (55°F) [RH = 83%]
Pressure (altimeter): 29.95 inches Hg (1014.3 mb)
[Sea-level pressure: 1014.0 mb]
Winds: from the W (280 degrees) at 7 MPH (6 knots; 3.1 m/s)
Visibility: 10 or more miles (16+ km)
Ceiling: at least 12,000 feet AGL
Clouds: few clouds at 8000 feet AGL
few clouds at 26000 feet AGL
Present Weather: no significant weather observed at this time
KALB 310951Z 28006KT 10SM FEW080 FEW260 16/13 A2995 RMK AO2 SLP140 T01560128

Conditions at: KALB observed 31 May 2016  08:51 UTC
Temperature: 16.1°C (61°F)
Dewpoint: 14.4°C (58°F) [RH = 90%]
Pressure (altimeter): 29.94 inches Hg (1014.0 mb)
[Sea-level pressure: 1013.8 mb]
Winds: calm
Visibility: 10 or more miles (16+ km)
Ceiling: at least 12,000 feet AGL
Clouds: scattered clouds at 26000 feet AGL
Present Weather: no significant weather observed at this time
KALB 310851Z 00000KT 10SM SCT260 16/14 A2994 RMK AO2 SLP138 T01610144 51009

Conditions at: KALB observed 31 May 2016  07:51 UTC
Temperature: 17.2°C (63°F)
Dewpoint: 13.9°C (57°F) [RH = 81%]
Pressure (altimeter): 29.93 inches Hg (1013.6 mb)
[Sea-level pressure: 1013.4 mb]
Winds: calm
Visibility: 10 or more miles (16+ km)
Ceiling: 26000 feet AGL
Clouds: broken clouds at 26000 feet AGL
Present Weather: no significant weather observed at this time
KALB 310751Z 00000KT 10SM BKN260 17/14 A2993 RMK AO2 SLP134 T01720139

Conditions at: KALB observed 31 May 2016  06:51 UTC
Temperature: 18.9°C (66°F)
Dewpoint: 15.6°C (60°F) [RH = 81%]
Pressure (altimeter): 29.93 inches Hg (1013.6 mb)
[Sea-level pressure: 1013.4 mb]
Winds: from the WSW (250 degrees) at 7 MPH (6 knots; 3.1 m/s)
Visibility: 10 or more miles (16+ km)
Ceiling: 26000 feet AGL
Clouds: few clouds at 7000 feet AGL
broken clouds at 26000 feet AGL
Present Weather: no significant weather observed at this time
KALB 310651Z 25006KT 10SM FEW070 BKN260 19/16 A2993 RMK AO2 SLP134 T01890156

Conditions at: KALB observed 31 May 2016  05:51 UTC
Temperature: 18.9°C (66°F)
Dewpoint: 17.2°C (63°F) [RH = 90%]
Pressure (altimeter): 29.92 inches Hg (1013.3 mb)
[Sea-level pressure: 1012.9 mb]
Winds: calm
Visibility: 10 or more miles (16+ km)
Ceiling: 26000 feet AGL
Clouds: few clouds at 7000 feet AGL
broken clouds at 26000 feet AGL
Present Weather: no significant weather observed at this time
KALB 310551Z 00000KT 10SM FEW070 BKN260 19/17 A2992 RMK AO2 SLP129 60000 T01890172 10217 20178 58002

Conditions at: KALB observed 31 May 2016  04:51 UTC
Temperature: 18.3°C (65°F)
Dewpoint: 17.2°C (63°F) [RH = 93%]
Pressure (altimeter): 29.92 inches Hg (1013.3 mb)
[Sea-level pressure: 1013.0 mb]
Winds: from the S (190 degrees) at 3 MPH (3 knots; 1.6 m/s)
Visibility: 10 or more miles (16+ km)
Ceiling: 26000 feet AGL
Clouds: broken clouds at 26000 feet AGL
Present Weather: no significant weather observed at this time
KALB 310451Z 19003KT 10SM BKN260 18/17 A2992 RMK AO2 SLP130 T01830172 402890183

Conditions at: KALB observed 31 May 2016  03:51 UTC
Temperature: 18.9°C (66°F)
Dewpoint: 17.2°C (63°F) [RH = 90%]
Pressure (altimeter): 29.92 inches Hg (1013.3 mb)
[Sea-level pressure: 1013.1 mb]
Winds: from the SSW (200 degrees) at 6 MPH (5 knots; 2.6 m/s)
Visibility: 10 or more miles (16+ km)
Ceiling: 26000 feet AGL
Clouds: broken clouds at 26000 feet AGL
Present Weather: no significant weather observed at this time
KALB 310351Z 20005KT 10SM BKN260 19/17 A2992 RMK AO2 SLP131 T01890172

Conditions at: KALB observed 31 May 2016  02:51 UTC
Temperature: 19.4°C (67°F)
Dewpoint: 17.8°C (64°F) [RH = 90%]
Pressure (altimeter): 29.92 inches Hg (1013.3 mb)
[Sea-level pressure: 1013.0 mb]
Winds: from the SSW (200 degrees) at 5 MPH (4 knots; 2.1 m/s)
Visibility: 10 or more miles (16+ km)
Ceiling: 25000 feet AGL
Clouds: few clouds at 8000 feet AGL
broken clouds at 25000 feet AGL
Present Weather: no significant weather observed at this time
KALB 310251Z 20004KT 10SM FEW080 BKN250 19/18 A2992 RMK AO2 SLP130 60000 T01940178 51010

Conditions at: KALB observed 31 May 2016  01:51 UTC
Temperature: 21.1°C (70°F)
Dewpoint: 18.9°C (66°F) [RH = 87%]
Pressure (altimeter): 29.92 inches Hg (1013.3 mb)
[Sea-level pressure: 1013.0 mb]
Winds: from the S (170 degrees) at 8 MPH (7 knots; 3.6 m/s)
Visibility: 10 or more miles (16+ km)
Ceiling: 25000 feet AGL
Clouds: few clouds at 8000 feet AGL
few clouds at 11000 feet AGL
broken clouds at 25000 feet AGL
Present Weather: no significant weather observed at this time
KALB 310151Z 17007KT 10SM FEW080 FEW110 BKN250 21/19 A2992 RMK AO2 SLP130 T02110189

Conditions at: KALB observed 31 May 2016  00:51 UTC
Temperature: 21.1°C (70°F)
Dewpoint: 18.3°C (65°F) [RH = 84%]
Pressure (altimeter): 29.90 inches Hg (1012.6 mb)
[Sea-level pressure: 1012.5 mb]
Winds: from the S (180 degrees) at 8 MPH (7 knots; 3.6 m/s)
Visibility: 10 or more miles (16+ km)
Ceiling: 11000 feet AGL
Clouds: scattered clouds at 8500 feet AGL
broken clouds at 11000 feet AGL
broken clouds at 22000 feet AGL
Present Weather: no significant weather observed at this time
KALB 310051Z 18007KT 10SM SCT085 BKN110 BKN220 21/18 A2990 RMK AO2 RAE10 SLP125 P0000 T02110183

Conditions at: KALB observed 30 May 2016  23:51 UTC
Temperature: 21.7°C (71°F)
Dewpoint: 19.4°C (67°F) [RH = 87%]
Pressure (altimeter): 29.89 inches Hg (1012.3 mb)
[Sea-level pressure: 1012.0 mb]
Winds: from the SSW (200 degrees) at 8 MPH (7 knots; 3.6 m/s)
Visibility: 10 or more miles (16+ km)
Ceiling: 10000 feet AGL
Clouds: few clouds at 2700 feet AGL
scattered clouds at 7500 feet AGL
broken clouds at 10000 feet AGL
overcast cloud deck at 25000 feet AGL
Present Weather: -RA  (light rain)
KALB 302351Z COR 20007KT 10SM -RA FEW027 SCT075 BKN100 OVC250 22/19 A2989 RMK AO2 RAB48 TSE21 SLP120 PCPN VRY LGT P0000 60059 T02170194 10289 20217 53013

Conditions at: KALB observed 30 May 2016  23:21 UTC
Temperature: 22.8°C (73°F)
Dewpoint: 20.0°C (68°F) [RH = 84%]
Pressure (altimeter): 29.88 inches Hg (1011.9 mb)
Winds: from the S (170 degrees) at 5 MPH (4 knots; 2.1 m/s)
Visibility: 10 or more miles (16+ km)
Ceiling: 11000 feet AGL
Clouds: few clouds at 2700 feet AGL
scattered clouds at 9000 feet AGL
broken clouds at 11000 feet AGL
broken clouds at 13000 feet AGL
Present Weather: no significant weather observed at this time
KALB 302321Z 17004KT 10SM FEW027CB SCT090 BKN110 BKN130 OVC250 23/20 A2988 RMK AO2 TSE21 CB S MOV E T02280200

Conditions at: KALB observed 30 May 2016  22:51 UTC
Temperature: 22.8°C (73°F)
Dewpoint: 20.0°C (68°F) [RH = 84%]
Pressure (altimeter): 29.87 inches Hg (1011.6 mb)
[Sea-level pressure: 1011.3 mb]
Winds: from the SE (140 degrees) at 6 MPH (5 knots; 2.6 m/s)
Visibility: 10 or more miles (16+ km)
Ceiling: 10000 feet AGL
Clouds: few clouds at 1800 feet AGL
scattered clouds at 2700 feet AGL
broken clouds at 10000 feet AGL
broken clouds at 25000 feet AGL
Present Weather: TS  (thunderstorm)
SOME DATA ABOVE MAY BE INACCURATE!!!
"$" is an indication the sensor requires maintenance
KALB 302251Z 14005KT 10SM TS FEW018 SCT027CB BKN100 BKN250 23/20 A2987 RMK AO2 RAB2154E40 TSE40B49 SLP113 OCNL LTGICCG E-SE TS E-SE MOV E P0028 T02280200 $

Conditions at: KALB observed 30 May 2016  22:49 UTC
Temperature: 23.0°C (73°F)
Dewpoint: 20.0°C (68°F) [RH = 83%]
Pressure (altimeter): 29.87 inches Hg (1011.6 mb)
Winds: from the SE (140 degrees) at 6 MPH (5 knots; 2.6 m/s)
Visibility: 10 or more miles (16+ km)
Ceiling: 10000 feet AGL
Clouds: few clouds at 1800 feet AGL
scattered clouds at 2700 feet AGL
broken clouds at 10000 feet AGL
broken clouds at 25000 feet AGL
Present Weather: TS  (thunderstorm)
SOME DATA ABOVE MAY BE INACCURATE!!!
"$" is an indication the sensor requires maintenance
KALB 302249Z 14005KT 10SM TS FEW018 SCT027CB BKN100 BKN250 23/20 A2987 RMK AO2 RAB2154E40 TSE40B49 OCNL LTGICCG E-SE TS E-SE MOV E P0028 $

Conditions at: KALB observed 30 May 2016  22:40 UTC
Temperature: 22.8°C (73°F)
Dewpoint: 20.6°C (69°F) [RH = 87%]
Pressure (altimeter): 29.86 inches Hg (1011.3 mb)
Winds: variable direction winds at 3 MPH (3 knots; 1.6 m/s)
Visibility: 10 or more miles (16+ km)
Ceiling: 2700 feet AGL
Clouds: few clouds at 800 feet AGL
scattered clouds at 1800 feet AGL
broken clouds at 2700 feet AGL
broken clouds at 25000 feet AGL
Present Weather:
SOME DATA ABOVE MAY BE INACCURATE!!!
"$" is an indication the sensor requires maintenance
KALB 302240Z VRB03KT 10SM FEW008 SCT018 BKN027CB BKN250 23/21 A2986 RMK AO2 RAB2154E40 TSE40 CB NE-E-S MOV E P0028 T02280206 $

Conditions at: KALB observed 30 May 2016  22:25 UTC
Temperature: 22.2°C (72°F)
Dewpoint: 20.0°C (68°F) [RH = 87%]
Pressure (altimeter): 29.88 inches Hg (1011.9 mb)
Winds: from the ESE (120 degrees) at 9 MPH (8 knots; 4.2 m/s)
Visibility: 4 miles (6 km)
Ceiling: 2400 feet AGL
Clouds: few clouds at 800 feet AGL
broken clouds at 2400 feet AGL
broken clouds at 5500 feet AGL
broken clouds at 25000 feet AGL
Present Weather: -TSRA BR  (light rain associated with thunderstorm(s), mist)
KALB 302225Z 12008KT 4SM -TSRA BR FEW008 BKN024CB BKN055 BKN250 22/20 A2988 RMK AO2 RAB2154 OCNL LTGICCG NE-E-S TS NE-E-S MOV E P0028 T02220200

Conditions at: KALB observed 30 May 2016  22:18 UTC
Temperature: 22.2°C (72°F)
Dewpoint: 20.6°C (69°F) [RH = 91%]
Pressure (altimeter): 29.88 inches Hg (1011.9 mb)
Winds: from the WSW (250 degrees) at 6 MPH (5 knots; 2.6 m/s)
Visibility: 0.75 miles (1.21 km)
Ceiling: 2800 feet AGL
Clouds: scattered clouds at 1100 feet AGL
broken clouds at 2800 feet AGL
overcast cloud deck at 9500 feet AGL
Present Weather: +TSRA BR  (heavy rain associated with thunderstorm(s), mist)
KALB 302218Z 25005KT 3/4SM R01/1800VP6000FT +TSRA BR SCT011 BKN028CB OVC095 22/21 A2988 RMK AO2 TWR VIS 1 RAB2154 FRQ LTGICCG N-OHD-SE TS N-OHD-S MOV E P0026 T02220206

Conditions at: KALB observed 30 May 2016  22:11 UTC
Temperature: 23.3°C (74°F)
Dewpoint: 20.6°C (69°F) [RH = 85%]
Pressure (altimeter): 29.88 inches Hg (1011.9 mb)
Winds: variable direction winds at 6 MPH (5 knots; 2.6 m/s)
gusting to 23 MPH (20 knots; 10.4 m/s)
Visibility: 1.00 miles (1.61 km)
Ceiling: 5500 feet AGL
Clouds: few clouds at 3100 feet AGL
broken clouds at 5500 feet AGL
broken clouds at 7000 feet AGL
broken clouds at 25000 feet AGL
Present Weather: +TSRA  (heavy rain associated with thunderstorm(s))
KALB 302211Z COR VRB05G20KT 1SM R01/1800VP6000FT +TSRA FEW031 BKN055CB BKN070 BKN250 23/21 A2988 RMK AO2 RAB2154 PRESRR FRQ LTGICCG NE-OHD-SW TS NE-OHD-SW MOV E P0005 T02330206